sensor_id;sensor_type;location;lat;lon;timestamp;temperature;humidity
10282;DHT22;5186;59.472;18.048;2023-08-08T00:01:43;18.30;99.90
10282;DHT22;5186;59.472;18.048;2023-08-08T00:04:10;18.30;99.90
10282;DHT22;5186;59.472;18.048;2023-08-08T00:06:36;18.30;99.90
10282;DHT22;5186;59.472;18.048;2023-08-08T00:09:02;18.30;99.90
10282;DHT22;5186;59.472;18.048;2023-08-08T00:11:29;18.30;99.90
10282;DHT22;5186;59.472;18.048;2023-08-08T00:13:55;18.30;99.90
10282;DHT22;5186;59.472;18.048;2023-08-08T00:16:22;18.30;99.90
10282;DHT22;5186;59.472;18.048;2023-08-08T00:18:47;18.30;99.90
10282;DHT22;5186;59.472;18.048;2023-08-08T00:21:15;18.30;99.90
10282;DHT22;5186;59.472;18.048;2023-08-08T00:23:40;18.30;99.90
10282;DHT22;5186;59.472;18.048;2023-08-08T00:26:06;18.30;99.90
10282;DHT22;5186;59.472;18.048;2023-08-08T00:28:31;18.30;99.90
10282;DHT22;5186;59.472;18.048;2023-08-08T00:30:57;18.30;99.90
10282;DHT22;5186;59.472;18.048;2023-08-08T00:33:23;18.30;99.90
10282;DHT22;5186;59.472;18.048;2023-08-08T00:35:48;18.30;99.90
10282;DHT22;5186;59.472;18.048;2023-08-08T00:38:14;18.30;99.90
10282;DHT22;5186;59.472;18.048;2023-08-08T00:40:39;18.30;99.90
10282;DHT22;5186;59.472;18.048;2023-08-08T00:43:05;18.30;99.90
10282;DHT22;5186;59.472;18.048;2023-08-08T00:45:31;18.30;99.90
10282;DHT22;5186;59.472;18.048;2023-08-08T00:47:56;18.30;99.90
10282;DHT22;5186;59.472;18.048;2023-08-08T00:50:22;18.30;99.90
10282;DHT22;5186;59.472;18.048;2023-08-08T00:52:48;18.40;99.90
10282;DHT22;5186;59.472;18.048;2023-08-08T00:55:14;18.40;99.90
10282;DHT22;5186;59.472;18.048;2023-08-08T00:57:40;18.30;99.90
10282;DHT22;5186;59.472;18.048;2023-08-08T01:00:07;18.30;99.90
10282;DHT22;5186;59.472;18.048;2023-08-08T01:02:35;18.30;99.90
10282;DHT22;5186;59.472;18.048;2023-08-08T01:05:02;18.30;99.90
10282;DHT22;5186;59.472;18.048;2023-08-08T01:07:41;18.30;99.90
10282;DHT22;5186;59.472;18.048;2023-08-08T01:10:17;18.30;99.90
10282;DHT22;5186;59.472;18.048;2023-08-08T01:12:56;18.30;99.90
10282;DHT22;5186;59.472;18.048;2023-08-08T01:15:25;18.30;99.90
10282;DHT22;5186;59.472;18.048;2023-08-08T01:17:51;18.30;99.90
10282;DHT22;5186;59.472;18.048;2023-08-08T01:20:17;18.30;99.90
10282;DHT22;5186;59.472;18.048;2023-08-08T01:22:58;18.30;99.90
10282;DHT22;5186;59.472;18.048;2023-08-08T01:25:29;18.30;99.90
10282;DHT22;5186;59.472;18.048;2023-08-08T01:27:55;18.30;99.90
10282;DHT22;5186;59.472;18.048;2023-08-08T01:30:21;18.30;99.90
10282;DHT22;5186;59.472;18.048;2023-08-08T01:32:46;18.30;99.90
10282;DHT22;5186;59.472;18.048;2023-08-08T01:35:12;18.30;99.90
10282;DHT22;5186;59.472;18.048;2023-08-08T01:37:48;18.30;99.90
10282;DHT22;5186;59.472;18.048;2023-08-08T01:40:17;18.30;99.90
10282;DHT22;5186;59.472;18.048;2023-08-08T01:42:45;18.30;99.90
10282;DHT22;5186;59.472;18.048;2023-08-08T01:45:11;18.30;99.90
10282;DHT22;5186;59.472;18.048;2023-08-08T01:47:37;18.30;99.90
10282;DHT22;5186;59.472;18.048;2023-08-08T01:50:03;18.20;99.90
10282;DHT22;5186;59.472;18.048;2023-08-08T01:52:29;18.20;99.90
10282;DHT22;5186;59.472;18.048;2023-08-08T01:54:54;18.20;99.90
10282;DHT22;5186;59.472;18.048;2023-08-08T01:57:20;18.20;99.90
10282;DHT22;5186;59.472;18.048;2023-08-08T01:59:46;18.10;99.90
10282;DHT22;5186;59.472;18.048;2023-08-08T02:02:11;18.20;99.90
10282;DHT22;5186;59.472;18.048;2023-08-08T02:04:37;18.20;99.90
10282;DHT22;5186;59.472;18.048;2023-08-08T02:07:02;18.10;99.90
10282;DHT22;5186;59.472;18.048;2023-08-08T02:09:28;18.20;99.90
10282;DHT22;5186;59.472;18.048;2023-08-08T02:11:54;18.20;99.90
10282;DHT22;5186;59.472;18.048;2023-08-08T02:14:20;18.20;99.90
10282;DHT22;5186;59.472;18.048;2023-08-08T02:16:45;18.20;99.90
10282;DHT22;5186;59.472;18.048;2023-08-08T02:19:11;18.20;99.90
10282;DHT22;5186;59.472;18.048;2023-08-08T02:21:36;18.10;99.90
10282;DHT22;5186;59.472;18.048;2023-08-08T02:24:02;18.10;99.90
10282;DHT22;5186;59.472;18.048;2023-08-08T02:26:28;18.10;99.90
10282;DHT22;5186;59.472;18.048;2023-08-08T02:28:53;18.10;99.90
10282;DHT22;5186;59.472;18.048;2023-08-08T02:31:19;18.10;99.90
10282;DHT22;5186;59.472;18.048;2023-08-08T02:33:49;18.10;99.90
10282;DHT22;5186;59.472;18.048;2023-08-08T02:36:16;18.10;99.90
10282;DHT22;5186;59.472;18.048;2023-08-08T02:38:42;18.00;99.90
10282;DHT22;5186;59.472;18.048;2023-08-08T02:41:07;18.00;99.90
10282;DHT22;5186;59.472;18.048;2023-08-08T02:43:33;18.00;99.90
10282;DHT22;5186;59.472;18.048;2023-08-08T02:45:58;18.00;99.90
10282;DHT22;5186;59.472;18.048;2023-08-08T02:48:24;18.00;99.90
10282;DHT22;5186;59.472;18.048;2023-08-08T02:50:49;18.00;99.90
10282;DHT22;5186;59.472;18.048;2023-08-08T02:53:15;18.00;99.90
10282;DHT22;5186;59.472;18.048;2023-08-08T02:55:41;18.00;99.90
10282;DHT22;5186;59.472;18.048;2023-08-08T02:58:06;18.00;99.90
10282;DHT22;5186;59.472;18.048;2023-08-08T03:00:32;18.00;99.90
10282;DHT22;5186;59.472;18.048;2023-08-08T03:02:57;18.00;99.90
10282;DHT22;5186;59.472;18.048;2023-08-08T03:05:23;18.00;99.90
10282;DHT22;5186;59.472;18.048;2023-08-08T03:07:48;18.00;99.90
10282;DHT22;5186;59.472;18.048;2023-08-08T03:10:14;17.90;99.90
10282;DHT22;5186;59.472;18.048;2023-08-08T03:12:40;17.90;99.90
10282;DHT22;5186;59.472;18.048;2023-08-08T03:15:07;17.90;99.90
10282;DHT22;5186;59.472;18.048;2023-08-08T03:17:33;17.90;99.90
10282;DHT22;5186;59.472;18.048;2023-08-08T03:19:58;17.90;99.90
10282;DHT22;5186;59.472;18.048;2023-08-08T03:22:24;17.90;99.90
10282;DHT22;5186;59.472;18.048;2023-08-08T03:24:50;17.80;99.90
10282;DHT22;5186;59.472;18.048;2023-08-08T03:27:15;17.80;99.90
10282;DHT22;5186;59.472;18.048;2023-08-08T03:29:41;17.80;99.90
10282;DHT22;5186;59.472;18.048;2023-08-08T03:32:06;17.80;99.90
10282;DHT22;5186;59.472;18.048;2023-08-08T03:34:32;17.80;99.90
10282;DHT22;5186;59.472;18.048;2023-08-08T03:36:58;17.80;99.90
10282;DHT22;5186;59.472;18.048;2023-08-08T03:39:24;17.80;99.90
10282;DHT22;5186;59.472;18.048;2023-08-08T03:41:50;17.80;99.90
10282;DHT22;5186;59.472;18.048;2023-08-08T03:44:15;17.80;99.90
10282;DHT22;5186;59.472;18.048;2023-08-08T03:46:41;17.80;99.90
10282;DHT22;5186;59.472;18.048;2023-08-08T03:49:06;17.80;99.90
10282;DHT22;5186;59.472;18.048;2023-08-08T03:51:32;17.80;99.90
10282;DHT22;5186;59.472;18.048;2023-08-08T03:53:57;17.80;99.90
10282;DHT22;5186;59.472;18.048;2023-08-08T03:56:23;17.80;99.90
10282;DHT22;5186;59.472;18.048;2023-08-08T03:58:49;17.70;99.90
10282;DHT22;5186;59.472;18.048;2023-08-08T04:01:14;17.70;99.90
10282;DHT22;5186;59.472;18.048;2023-08-08T04:03:40;17.70;99.90
10282;DHT22;5186;59.472;18.048;2023-08-08T04:06:05;17.70;99.90
10282;DHT22;5186;59.472;18.048;2023-08-08T04:08:31;17.70;99.90
10282;DHT22;5186;59.472;18.048;2023-08-08T04:10:58;17.80;99.90
10282;DHT22;5186;59.472;18.048;2023-08-08T04:13:23;17.70;99.90
10282;DHT22;5186;59.472;18.048;2023-08-08T04:15:49;17.70;99.90
10282;DHT22;5186;59.472;18.048;2023-08-08T04:18:17;17.70;99.90
10282;DHT22;5186;59.472;18.048;2023-08-08T04:20:45;17.70;99.90
10282;DHT22;5186;59.472;18.048;2023-08-08T04:23:11;17.70;99.90
10282;DHT22;5186;59.472;18.048;2023-08-08T04:25:36;17.70;99.90
10282;DHT22;5186;59.472;18.048;2023-08-08T04:28:02;17.60;99.90
10282;DHT22;5186;59.472;18.048;2023-08-08T04:30:28;17.60;99.90
10282;DHT22;5186;59.472;18.048;2023-08-08T04:32:54;17.60;99.90
10282;DHT22;5186;59.472;18.048;2023-08-08T04:35:19;17.70;99.90
10282;DHT22;5186;59.472;18.048;2023-08-08T04:37:45;17.60;99.90
10282;DHT22;5186;59.472;18.048;2023-08-08T04:40:10;17.60;99.90
10282;DHT22;5186;59.472;18.048;2023-08-08T04:42:36;17.60;99.90
10282;DHT22;5186;59.472;18.048;2023-08-08T04:45:02;17.60;99.90
10282;DHT22;5186;59.472;18.048;2023-08-08T04:47:28;17.50;99.90
10282;DHT22;5186;59.472;18.048;2023-08-08T04:49:53;17.40;99.90
10282;DHT22;5186;59.472;18.048;2023-08-08T04:52:19;17.50;99.90
10282;DHT22;5186;59.472;18.048;2023-08-08T04:54:44;17.40;99.90
10282;DHT22;5186;59.472;18.048;2023-08-08T04:57:10;17.40;99.90
10282;DHT22;5186;59.472;18.048;2023-08-08T04:59:35;17.40;99.90
10282;DHT22;5186;59.472;18.048;2023-08-08T05:02:01;17.30;99.90
10282;DHT22;5186;59.472;18.048;2023-08-08T05:04:27;17.30;99.90
10282;DHT22;5186;59.472;18.048;2023-08-08T05:06:52;17.30;99.90
10282;DHT22;5186;59.472;18.048;2023-08-08T05:09:18;17.30;99.90
10282;DHT22;5186;59.472;18.048;2023-08-08T05:11:43;17.30;99.90
10282;DHT22;5186;59.472;18.048;2023-08-08T05:14:09;17.30;99.90
10282;DHT22;5186;59.472;18.048;2023-08-08T05:16:34;17.30;99.90
10282;DHT22;5186;59.472;18.048;2023-08-08T05:19:00;17.20;99.90
10282;DHT22;5186;59.472;18.048;2023-08-08T05:21:25;17.20;99.90
10282;DHT22;5186;59.472;18.048;2023-08-08T05:23:51;17.30;99.90
10282;DHT22;5186;59.472;18.048;2023-08-08T05:26:17;17.20;99.90
10282;DHT22;5186;59.472;18.048;2023-08-08T05:28:42;17.20;99.90
10282;DHT22;5186;59.472;18.048;2023-08-08T05:31:08;17.20;99.90
10282;DHT22;5186;59.472;18.048;2023-08-08T05:33:33;17.30;99.90
10282;DHT22;5186;59.472;18.048;2023-08-08T05:35:59;17.20;99.90
10282;DHT22;5186;59.472;18.048;2023-08-08T05:38:25;17.20;99.90
10282;DHT22;5186;59.472;18.048;2023-08-08T05:40:50;17.20;99.90
10282;DHT22;5186;59.472;18.048;2023-08-08T05:43:17;17.20;99.90
10282;DHT22;5186;59.472;18.048;2023-08-08T05:45:44;17.20;99.90
10282;DHT22;5186;59.472;18.048;2023-08-08T05:48:10;17.20;99.90
10282;DHT22;5186;59.472;18.048;2023-08-08T05:50:38;17.30;99.90
10282;DHT22;5186;59.472;18.048;2023-08-08T05:53:04;17.30;99.90
10282;DHT22;5186;59.472;18.048;2023-08-08T05:55:29;17.30;99.90
10282;DHT22;5186;59.472;18.048;2023-08-08T05:57:55;17.30;99.90
10282;DHT22;5186;59.472;18.048;2023-08-08T06:00:20;17.30;99.90
10282;DHT22;5186;59.472;18.048;2023-08-08T06:02:46;17.30;99.90
10282;DHT22;5186;59.472;18.048;2023-08-08T06:05:12;17.40;99.90
10282;DHT22;5186;59.472;18.048;2023-08-08T06:07:38;17.40;99.90
10282;DHT22;5186;59.472;18.048;2023-08-08T06:10:05;17.40;99.90
10282;DHT22;5186;59.472;18.048;2023-08-08T06:12:30;17.40;99.90
10282;DHT22;5186;59.472;18.048;2023-08-08T06:14:56;17.40;99.90
10282;DHT22;5186;59.472;18.048;2023-08-08T06:17:22;17.40;99.90
10282;DHT22;5186;59.472;18.048;2023-08-08T06:19:49;17.50;99.90
10282;DHT22;5186;59.472;18.048;2023-08-08T06:22:15;17.40;99.90
10282;DHT22;5186;59.472;18.048;2023-08-08T06:24:41;17.50;99.90
10282;DHT22;5186;59.472;18.048;2023-08-08T06:27:07;17.50;99.90
10282;DHT22;5186;59.472;18.048;2023-08-08T06:29:32;17.50;99.90
10282;DHT22;5186;59.472;18.048;2023-08-08T06:31:58;17.50;99.90
10282;DHT22;5186;59.472;18.048;2023-08-08T06:34:23;17.60;99.90
10282;DHT22;5186;59.472;18.048;2023-08-08T06:36:49;17.60;99.90
10282;DHT22;5186;59.472;18.048;2023-08-08T06:39:15;17.60;99.90
10282;DHT22;5186;59.472;18.048;2023-08-08T06:41:41;17.60;99.90
10282;DHT22;5186;59.472;18.048;2023-08-08T06:44:07;17.60;99.90
10282;DHT22;5186;59.472;18.048;2023-08-08T06:46:33;17.70;99.90
10282;DHT22;5186;59.472;18.048;2023-08-08T06:48:58;17.70;99.90
10282;DHT22;5186;59.472;18.048;2023-08-08T06:51:25;17.70;99.90
10282;DHT22;5186;59.472;18.048;2023-08-08T06:53:51;17.70;99.90
10282;DHT22;5186;59.472;18.048;2023-08-08T06:56:17;17.80;99.90
10282;DHT22;5186;59.472;18.048;2023-08-08T06:58:43;17.80;99.90
10282;DHT22;5186;59.472;18.048;2023-08-08T07:01:09;17.80;99.90
10282;DHT22;5186;59.472;18.048;2023-08-08T07:03:35;17.90;99.90
10282;DHT22;5186;59.472;18.048;2023-08-08T07:06:01;17.80;99.90
10282;DHT22;5186;59.472;18.048;2023-08-08T07:08:26;17.80;99.90
10282;DHT22;5186;59.472;18.048;2023-08-08T07:10:52;17.80;99.90
10282;DHT22;5186;59.472;18.048;2023-08-08T07:13:17;17.80;99.90
10282;DHT22;5186;59.472;18.048;2023-08-08T07:15:43;17.80;99.90
10282;DHT22;5186;59.472;18.048;2023-08-08T07:18:08;17.80;99.90
10282;DHT22;5186;59.472;18.048;2023-08-08T07:20:34;17.80;99.90
10282;DHT22;5186;59.472;18.048;2023-08-08T07:23:00;17.80;99.90
10282;DHT22;5186;59.472;18.048;2023-08-08T07:25:26;17.90;99.90
10282;DHT22;5186;59.472;18.048;2023-08-08T07:27:52;17.80;99.90
10282;DHT22;5186;59.472;18.048;2023-08-08T07:30:18;17.80;99.90
10282;DHT22;5186;59.472;18.048;2023-08-08T07:32:43;17.90;99.90
10282;DHT22;5186;59.472;18.048;2023-08-08T07:35:09;17.90;99.90
10282;DHT22;5186;59.472;18.048;2023-08-08T07:37:36;17.90;99.90
10282;DHT22;5186;59.472;18.048;2023-08-08T07:40:02;17.90;99.90
10282;DHT22;5186;59.472;18.048;2023-08-08T07:42:29;17.90;99.90
10282;DHT22;5186;59.472;18.048;2023-08-08T07:44:54;18.00;99.90
10282;DHT22;5186;59.472;18.048;2023-08-08T07:47:20;17.90;99.90
10282;DHT22;5186;59.472;18.048;2023-08-08T07:49:46;18.00;99.90
10282;DHT22;5186;59.472;18.048;2023-08-08T07:52:11;18.00;99.90
10282;DHT22;5186;59.472;18.048;2023-08-08T07:54:37;18.00;99.90
10282;DHT22;5186;59.472;18.048;2023-08-08T07:57:02;18.00;99.90
10282;DHT22;5186;59.472;18.048;2023-08-08T07:59:29;18.10;99.90
10282;DHT22;5186;59.472;18.048;2023-08-08T08:01:54;18.10;99.90
10282;DHT22;5186;59.472;18.048;2023-08-08T08:04:20;18.10;99.90
10282;DHT22;5186;59.472;18.048;2023-08-08T08:06:46;18.10;99.90
10282;DHT22;5186;59.472;18.048;2023-08-08T08:09:11;18.20;99.90
10282;DHT22;5186;59.472;18.048;2023-08-08T08:11:37;18.20;99.90
10282;DHT22;5186;59.472;18.048;2023-08-08T08:14:02;18.30;99.90
10282;DHT22;5186;59.472;18.048;2023-08-08T08:16:28;18.30;99.90
10282;DHT22;5186;59.472;18.048;2023-08-08T08:18:54;18.40;99.90
10282;DHT22;5186;59.472;18.048;2023-08-08T08:21:19;18.40;99.90
10282;DHT22;5186;59.472;18.048;2023-08-08T08:23:46;18.50;99.90
10282;DHT22;5186;59.472;18.048;2023-08-08T08:26:11;18.50;99.90
10282;DHT22;5186;59.472;18.048;2023-08-08T08:28:37;18.50;99.90
10282;DHT22;5186;59.472;18.048;2023-08-08T08:31:06;18.70;99.90
10282;DHT22;5186;59.472;18.048;2023-08-08T08:33:31;18.80;99.90
10282;DHT22;5186;59.472;18.048;2023-08-08T08:35:57;18.90;99.90
10282;DHT22;5186;59.472;18.048;2023-08-08T08:38:22;18.90;99.90
10282;DHT22;5186;59.472;18.048;2023-08-08T08:40:49;19.00;99.90
10282;DHT22;5186;59.472;18.048;2023-08-08T08:43:15;19.10;99.90
10282;DHT22;5186;59.472;18.048;2023-08-08T08:45:43;19.20;99.90
10282;DHT22;5186;59.472;18.048;2023-08-08T08:48:10;19.20;99.90
10282;DHT22;5186;59.472;18.048;2023-08-08T08:50:38;19.20;99.90
10282;DHT22;5186;59.472;18.048;2023-08-08T08:53:05;19.30;99.90
10282;DHT22;5186;59.472;18.048;2023-08-08T08:55:31;19.30;99.90
10282;DHT22;5186;59.472;18.048;2023-08-08T08:57:57;19.30;99.90
10282;DHT22;5186;59.472;18.048;2023-08-08T09:00:22;19.20;99.90
10282;DHT22;5186;59.472;18.048;2023-08-08T09:02:48;19.20;99.90
10282;DHT22;5186;59.472;18.048;2023-08-08T09:05:15;19.20;99.90
10282;DHT22;5186;59.472;18.048;2023-08-08T09:07:42;19.20;99.90
10282;DHT22;5186;59.472;18.048;2023-08-08T09:10:08;19.20;99.90
10282;DHT22;5186;59.472;18.048;2023-08-08T09:12:34;19.20;99.90
10282;DHT22;5186;59.472;18.048;2023-08-08T09:15:02;19.20;99.90
10282;DHT22;5186;59.472;18.048;2023-08-08T09:17:30;19.20;99.90
10282;DHT22;5186;59.472;18.048;2023-08-08T09:19:55;19.00;99.90
10282;DHT22;5186;59.472;18.048;2023-08-08T09:22:21;19.10;99.90
10282;DHT22;5186;59.472;18.048;2023-08-08T09:24:49;19.00;99.90
10282;DHT22;5186;59.472;18.048;2023-08-08T09:27:14;19.00;99.90
10282;DHT22;5186;59.472;18.048;2023-08-08T09:29:41;19.00;99.90
10282;DHT22;5186;59.472;18.048;2023-08-08T09:32:07;19.10;99.90
10282;DHT22;5186;59.472;18.048;2023-08-08T09:34:34;19.20;99.90
10282;DHT22;5186;59.472;18.048;2023-08-08T09:36:59;19.20;99.90
10282;DHT22;5186;59.472;18.048;2023-08-08T09:39:26;19.20;99.90
10282;DHT22;5186;59.472;18.048;2023-08-08T09:41:51;19.20;99.90
10282;DHT22;5186;59.472;18.048;2023-08-08T09:44:17;19.30;99.90
10282;DHT22;5186;59.472;18.048;2023-08-08T09:46:43;19.30;99.90
10282;DHT22;5186;59.472;18.048;2023-08-08T09:49:12;19.30;99.90
10282;DHT22;5186;59.472;18.048;2023-08-08T09:51:39;19.40;99.90
10282;DHT22;5186;59.472;18.048;2023-08-08T09:54:05;19.40;99.90
10282;DHT22;5186;59.472;18.048;2023-08-08T09:56:34;19.40;99.90
10282;DHT22;5186;59.472;18.048;2023-08-08T09:59:01;19.50;99.90
10282;DHT22;5186;59.472;18.048;2023-08-08T10:01:27;19.50;99.90
10282;DHT22;5186;59.472;18.048;2023-08-08T10:03:53;19.60;99.90
10282;DHT22;5186;59.472;18.048;2023-08-08T10:06:19;19.60;99.90
10282;DHT22;5186;59.472;18.048;2023-08-08T10:08:45;19.60;99.90
10282;DHT22;5186;59.472;18.048;2023-08-08T10:11:12;19.60;99.90
10282;DHT22;5186;59.472;18.048;2023-08-08T10:13:46;19.50;99.90
10282;DHT22;5186;59.472;18.048;2023-08-08T10:16:12;19.50;99.90
10282;DHT22;5186;59.472;18.048;2023-08-08T10:18:37;19.40;99.90
10282;DHT22;5186;59.472;18.048;2023-08-08T10:21:06;19.40;99.90
10282;DHT22;5186;59.472;18.048;2023-08-08T10:23:36;19.30;99.90
10282;DHT22;5186;59.472;18.048;2023-08-08T10:26:02;19.30;99.90
10282;DHT22;5186;59.472;18.048;2023-08-08T10:28:28;19.30;99.90
10282;DHT22;5186;59.472;18.048;2023-08-08T10:30:58;19.20;99.90
10282;DHT22;5186;59.472;18.048;2023-08-08T10:33:41;19.10;99.90
10282;DHT22;5186;59.472;18.048;2023-08-08T10:36:08;19.00;99.90
10282;DHT22;5186;59.472;18.048;2023-08-08T10:38:50;18.90;99.90
10282;DHT22;5186;59.472;18.048;2023-08-08T10:41:21;19.00;99.90
10282;DHT22;5186;59.472;18.048;2023-08-08T10:43:52;19.00;99.90
10282;DHT22;5186;59.472;18.048;2023-08-08T10:46:32;19.00;99.90
10282;DHT22;5186;59.472;18.048;2023-08-08T10:48:59;19.00;99.90
10282;DHT22;5186;59.472;18.048;2023-08-08T10:51:35;18.90;99.90
10282;DHT22;5186;59.472;18.048;2023-08-08T10:54:06;18.90;99.90
10282;DHT22;5186;59.472;18.048;2023-08-08T10:56:35;18.90;99.90
10282;DHT22;5186;59.472;18.048;2023-08-08T10:59:19;18.80;99.90
10282;DHT22;5186;59.472;18.048;2023-08-08T11:01:46;18.70;99.90
10282;DHT22;5186;59.472;18.048;2023-08-08T11:04:12;18.70;99.90
10282;DHT22;5186;59.472;18.048;2023-08-08T11:06:38;18.70;99.90
10282;DHT22;5186;59.472;18.048;2023-08-08T11:09:06;18.60;99.90
10282;DHT22;5186;59.472;18.048;2023-08-08T11:11:42;18.70;99.90
10282;DHT22;5186;59.472;18.048;2023-08-08T11:14:13;18.60;99.90
10282;DHT22;5186;59.472;18.048;2023-08-08T11:16:39;18.60;99.90
10282;DHT22;5186;59.472;18.048;2023-08-08T11:19:05;18.60;99.90
10282;DHT22;5186;59.472;18.048;2023-08-08T11:21:34;18.60;99.90
10282;DHT22;5186;59.472;18.048;2023-08-08T11:24:01;18.60;99.90
10282;DHT22;5186;59.472;18.048;2023-08-08T11:26:27;18.50;99.90
10282;DHT22;5186;59.472;18.048;2023-08-08T11:28:53;18.40;99.90
10282;DHT22;5186;59.472;18.048;2023-08-08T11:31:21;18.40;99.90
10282;DHT22;5186;59.472;18.048;2023-08-08T11:33:48;18.30;99.90
10282;DHT22;5186;59.472;18.048;2023-08-08T11:36:14;18.30;99.90
10282;DHT22;5186;59.472;18.048;2023-08-08T11:38:41;18.20;99.90
10282;DHT22;5186;59.472;18.048;2023-08-08T11:41:12;18.10;99.90
10282;DHT22;5186;59.472;18.048;2023-08-08T11:43:39;18.20;99.90
10282;DHT22;5186;59.472;18.048;2023-08-08T11:46:11;18.20;99.90
10282;DHT22;5186;59.472;18.048;2023-08-08T11:48:37;18.20;99.90
10282;DHT22;5186;59.472;18.048;2023-08-08T11:51:07;18.10;99.90
10282;DHT22;5186;59.472;18.048;2023-08-08T11:53:33;18.20;99.90
10282;DHT22;5186;59.472;18.048;2023-08-08T11:55:59;18.10;99.90
10282;DHT22;5186;59.472;18.048;2023-08-08T11:58:25;18.00;99.90
10282;DHT22;5186;59.472;18.048;2023-08-08T12:00:52;18.00;99.90
10282;DHT22;5186;59.472;18.048;2023-08-08T12:03:18;18.10;99.90
10282;DHT22;5186;59.472;18.048;2023-08-08T12:05:48;18.10;99.90
10282;DHT22;5186;59.472;18.048;2023-08-08T12:08:20;18.00;99.90
10282;DHT22;5186;59.472;18.048;2023-08-08T12:10:50;17.90;99.90
10282;DHT22;5186;59.472;18.048;2023-08-08T12:13:20;18.00;99.90
10282;DHT22;5186;59.472;18.048;2023-08-08T12:15:47;18.10;99.90
10282;DHT22;5186;59.472;18.048;2023-08-08T12:18:16;18.10;99.90
10282;DHT22;5186;59.472;18.048;2023-08-08T12:20:43;18.10;99.90
10282;DHT22;5186;59.472;18.048;2023-08-08T12:23:09;18.10;99.90
10282;DHT22;5186;59.472;18.048;2023-08-08T12:25:34;18.20;99.90
10282;DHT22;5186;59.472;18.048;2023-08-08T12:28:01;18.30;99.90
10282;DHT22;5186;59.472;18.048;2023-08-08T12:30:26;18.30;99.90
10282;DHT22;5186;59.472;18.048;2023-08-08T12:32:52;18.30;99.90
10282;DHT22;5186;59.472;18.048;2023-08-08T12:35:19;18.30;99.90
10282;DHT22;5186;59.472;18.048;2023-08-08T12:37:48;18.30;99.90
10282;DHT22;5186;59.472;18.048;2023-08-08T12:40:14;18.30;99.90
10282;DHT22;5186;59.472;18.048;2023-08-08T12:42:39;18.30;99.90
10282;DHT22;5186;59.472;18.048;2023-08-08T12:45:06;18.40;99.90
10282;DHT22;5186;59.472;18.048;2023-08-08T12:47:32;18.30;99.90
10282;DHT22;5186;59.472;18.048;2023-08-08T12:50:02;18.30;99.90
10282;DHT22;5186;59.472;18.048;2023-08-08T12:52:28;18.30;99.90
10282;DHT22;5186;59.472;18.048;2023-08-08T12:54:53;18.30;99.90
10282;DHT22;5186;59.472;18.048;2023-08-08T12:57:19;18.20;99.90
10282;DHT22;5186;59.472;18.048;2023-08-08T12:59:44;18.30;99.90
10282;DHT22;5186;59.472;18.048;2023-08-08T13:02:10;18.30;99.90
10282;DHT22;5186;59.472;18.048;2023-08-08T13:04:35;18.30;99.90
10282;DHT22;5186;59.472;18.048;2023-08-08T13:07:01;18.20;99.90
10282;DHT22;5186;59.472;18.048;2023-08-08T13:09:27;18.20;99.90
10282;DHT22;5186;59.472;18.048;2023-08-08T13:11:52;18.30;99.90
10282;DHT22;5186;59.472;18.048;2023-08-08T13:14:18;18.30;99.90
10282;DHT22;5186;59.472;18.048;2023-08-08T13:16:43;18.30;99.90
10282;DHT22;5186;59.472;18.048;2023-08-08T13:19:09;18.30;99.90
10282;DHT22;5186;59.472;18.048;2023-08-08T13:21:34;18.40;99.90
10282;DHT22;5186;59.472;18.048;2023-08-08T13:24:00;18.50;99.90
10282;DHT22;5186;59.472;18.048;2023-08-08T13:26:25;18.50;99.90
10282;DHT22;5186;59.472;18.048;2023-08-08T13:28:51;18.40;99.90
10282;DHT22;5186;59.472;18.048;2023-08-08T13:31:17;18.40;99.90
10282;DHT22;5186;59.472;18.048;2023-08-08T13:33:42;18.40;99.90
10282;DHT22;5186;59.472;18.048;2023-08-08T13:36:08;18.30;99.90
10282;DHT22;5186;59.472;18.048;2023-08-08T13:38:34;18.30;99.90
10282;DHT22;5186;59.472;18.048;2023-08-08T13:41:00;18.30;99.90
10282;DHT22;5186;59.472;18.048;2023-08-08T13:43:26;18.20;99.90
10282;DHT22;5186;59.472;18.048;2023-08-08T13:45:52;18.30;99.90
10282;DHT22;5186;59.472;18.048;2023-08-08T13:48:17;18.20;99.90
10282;DHT22;5186;59.472;18.048;2023-08-08T13:50:43;18.20;99.90
10282;DHT22;5186;59.472;18.048;2023-08-08T13:53:09;18.10;99.90
10282;DHT22;5186;59.472;18.048;2023-08-08T13:55:35;18.20;99.90
10282;DHT22;5186;59.472;18.048;2023-08-08T13:58:05;18.30;99.90
10282;DHT22;5186;59.472;18.048;2023-08-08T14:00:31;18.30;99.90
10282;DHT22;5186;59.472;18.048;2023-08-08T14:02:57;18.30;99.90
10282;DHT22;5186;59.472;18.048;2023-08-08T14:05:24;18.20;99.90
10282;DHT22;5186;59.472;18.048;2023-08-08T14:07:49;18.10;99.90
10282;DHT22;5186;59.472;18.048;2023-08-08T14:10:15;18.10;99.90
10282;DHT22;5186;59.472;18.048;2023-08-08T14:12:41;18.00;99.90
10282;DHT22;5186;59.472;18.048;2023-08-08T14:15:07;18.00;99.90
10282;DHT22;5186;59.472;18.048;2023-08-08T14:17:34;17.90;99.90
10282;DHT22;5186;59.472;18.048;2023-08-08T14:20:00;17.90;99.90
10282;DHT22;5186;59.472;18.048;2023-08-08T14:22:25;17.90;99.90
10282;DHT22;5186;59.472;18.048;2023-08-08T14:24:51;17.90;99.90
10282;DHT22;5186;59.472;18.048;2023-08-08T14:27:16;17.80;99.90
10282;DHT22;5186;59.472;18.048;2023-08-08T14:29:42;17.80;99.90
10282;DHT22;5186;59.472;18.048;2023-08-08T14:32:07;17.70;99.90
10282;DHT22;5186;59.472;18.048;2023-08-08T14:34:33;17.60;99.90
10282;DHT22;5186;59.472;18.048;2023-08-08T14:37:00;17.60;99.90
10282;DHT22;5186;59.472;18.048;2023-08-08T14:39:26;17.70;99.90
10282;DHT22;5186;59.472;18.048;2023-08-08T14:41:52;17.70;99.90
10282;DHT22;5186;59.472;18.048;2023-08-08T14:44:18;17.70;99.90
10282;DHT22;5186;59.472;18.048;2023-08-08T14:46:44;17.70;99.90
10282;DHT22;5186;59.472;18.048;2023-08-08T14:49:10;17.60;99.90
10282;DHT22;5186;59.472;18.048;2023-08-08T14:51:35;17.60;99.90
10282;DHT22;5186;59.472;18.048;2023-08-08T14:54:02;17.50;99.90
10282;DHT22;5186;59.472;18.048;2023-08-08T14:56:28;17.40;99.90
10282;DHT22;5186;59.472;18.048;2023-08-08T14:58:53;17.30;99.90
10282;DHT22;5186;59.472;18.048;2023-08-08T15:01:19;17.20;99.90
10282;DHT22;5186;59.472;18.048;2023-08-08T15:03:44;17.20;99.90
10282;DHT22;5186;59.472;18.048;2023-08-08T15:06:10;17.20;99.90
10282;DHT22;5186;59.472;18.048;2023-08-08T15:08:36;17.20;99.90
10282;DHT22;5186;59.472;18.048;2023-08-08T15:11:02;17.00;99.90
10282;DHT22;5186;59.472;18.048;2023-08-08T15:13:27;17.00;99.90
10282;DHT22;5186;59.472;18.048;2023-08-08T15:15:53;17.00;99.90
10282;DHT22;5186;59.472;18.048;2023-08-08T15:18:19;17.00;99.90
10282;DHT22;5186;59.472;18.048;2023-08-08T15:20:44;16.90;99.90
10282;DHT22;5186;59.472;18.048;2023-08-08T15:23:10;16.90;99.90
10282;DHT22;5186;59.472;18.048;2023-08-08T15:25:36;16.80;99.90